Aviation Digital Data Service (ADDS)

Output produced by METARs form (0429 UTC 26 May 2018)
found at http://www.aviationweather.gov/adds/metars/
 
BKPR 260430Z VRB03KT 6000 FEW090 SCT200 14/10 Q1020 NOSIG
TAF BKPR 252330Z 2600/2624 VRB03KT 9999 FEW040 
     TEMPO 2603/2606 2000 BR 
     TEMPO 2612/2616 03014KT